sensor_id;sensor_type;location;lat;lon;timestamp;pressure;altitude;pressure_sealevel;temperature;humidity
73981;BME280;62348;51.412;5.436;2023-12-29T00:01:58;100713.63;;;9.67;100.00
73981;BME280;62348;51.412;5.436;2023-12-29T00:04:27;100709.31;;;9.66;100.00
73981;BME280;62348;51.412;5.436;2023-12-29T00:06:53;100702.84;;;9.67;100.00
73981;BME280;62348;51.412;5.436;2023-12-29T00:09:18;100709.31;;;9.66;100.00
73981;BME280;62348;51.412;5.436;2023-12-29T00:11:49;100711.22;;;9.66;100.00
73981;BME280;62348;51.412;5.436;2023-12-29T00:14:15;100700.41;;;9.66;100.00
73981;BME280;62348;51.412;5.436;2023-12-29T00:16:41;100703.66;;;9.68;100.00
73981;BME280;62348;51.412;5.436;2023-12-29T00:19:06;100699.59;;;9.65;100.00
73981;BME280;62348;51.412;5.436;2023-12-29T00:21:32;100703.38;;;9.64;100.00
73981;BME280;62348;51.412;5.436;2023-12-29T00:23:57;100698.53;;;9.66;100.00
73981;BME280;62348;51.412;5.436;2023-12-29T00:26:23;100698.53;;;9.66;100.00
73981;BME280;62348;51.412;5.436;2023-12-29T00:28:48;100679.88;;;9.65;100.00
73981;BME280;62348;51.412;5.436;2023-12-29T00:31:16;100692.56;;;9.64;100.00
73981;BME280;62348;51.412;5.436;2023-12-29T00:33:45;100683.66;;;9.64;100.00
73981;BME280;62348;51.412;5.436;2023-12-29T00:36:17;100681.53;;;9.66;100.00
73981;BME280;62348;51.412;5.436;2023-12-29T00:38:43;100670.19;;;9.69;100.00
73981;BME280;62348;51.412;5.436;2023-12-29T00:41:09;100676.94;;;9.66;100.00
73981;BME280;62348;51.412;5.436;2023-12-29T00:43:34;100672.03;;;9.63;100.00
73981;BME280;62348;51.412;5.436;2023-12-29T00:46:04;100656.66;;;9.64;100.00
73981;BME280;62348;51.412;5.436;2023-12-29T00:48:32;100671.22;;;9.63;100.00
73981;BME280;62348;51.412;5.436;2023-12-29T00:50:58;100655.84;;;9.63;100.00
73981;BME280;62348;51.412;5.436;2023-12-29T00:53:23;100653.38;;;9.62;100.00
73981;BME280;62348;51.412;5.436;2023-12-29T00:55:49;100670.41;;;9.62;100.00
73981;BME280;62348;51.412;5.436;2023-12-29T00:58:14;100684.41;;;9.59;100.00
73981;BME280;62348;51.412;5.436;2023-12-29T01:00:39;100692.47;;;9.54;100.00
73981;BME280;62348;51.412;5.436;2023-12-29T01:03:05;100681.38;;;9.50;100.00
73981;BME280;62348;51.412;5.436;2023-12-29T01:05:30;100661.34;;;9.41;100.00
73981;BME280;62348;51.412;5.436;2023-12-29T01:07:56;100667.50;;;9.36;100.00
73981;BME280;62348;51.412;5.436;2023-12-29T01:10:21;100675.81;;;9.30;100.00
73981;BME280;62348;51.412;5.436;2023-12-29T01:12:47;100667.13;;;9.23;100.00
73981;BME280;62348;51.412;5.436;2023-12-29T01:15:13;100666.25;;;9.17;100.00
73981;BME280;62348;51.412;5.436;2023-12-29T01:17:38;100664.31;;;9.12;100.00
73981;BME280;62348;51.412;5.436;2023-12-29T01:20:04;100665.91;;;9.08;100.00
73981;BME280;62348;51.412;5.436;2023-12-29T01:22:29;100664.53;;;9.06;100.00
73981;BME280;62348;51.412;5.436;2023-12-29T01:24:55;100663.66;;;9.00;100.00
73981;BME280;62348;51.412;5.436;2023-12-29T01:27:21;100670.09;;;8.94;100.00
73981;BME280;62348;51.412;5.436;2023-12-29T01:29:46;100676.22;;;8.89;100.00
73981;BME280;62348;51.412;5.436;2023-12-29T01:32:12;100665.69;;;8.88;100.00
73981;BME280;62348;51.412;5.436;2023-12-29T01:34:37;100678.88;;;8.84;100.00
73981;BME280;62348;51.412;5.436;2023-12-29T01:37:03;100676.44;;;8.83;100.00
73981;BME280;62348;51.412;5.436;2023-12-29T01:39:29;100671.53;;;8.79;100.00
73981;BME280;62348;51.412;5.436;2023-12-29T01:41:55;100671.78;;;8.78;100.00
73981;BME280;62348;51.412;5.436;2023-12-29T01:44:21;100662.31;;;8.75;100.00
73981;BME280;62348;51.412;5.436;2023-12-29T01:46:49;100659.06;;;8.73;100.00
73981;BME280;62348;51.412;5.436;2023-12-29T01:49:16;100652.31;;;8.71;100.00
73981;BME280;62348;51.412;5.436;2023-12-29T01:51:49;100648.78;;;8.70;100.00
73981;BME280;62348;51.412;5.436;2023-12-29T01:54:15;100654.94;;;8.66;100.00
73981;BME280;62348;51.412;5.436;2023-12-29T01:56:41;100632.59;;;8.65;100.00
73981;BME280;62348;51.412;5.436;2023-12-29T01:59:07;100629.28;;;8.63;100.00
73981;BME280;62348;51.412;5.436;2023-12-29T02:01:33;100637.66;;;8.62;100.00
73981;BME280;62348;51.412;5.436;2023-12-29T02:03:59;100637.91;;;8.60;100.00
73981;BME280;62348;51.412;5.436;2023-12-29T02:06:25;100641.41;;;8.60;100.00
73981;BME280;62348;51.412;5.436;2023-12-29T02:08:51;100644.34;;;8.59;100.00
73981;BME280;62348;51.412;5.436;2023-12-29T02:11:17;100636.00;;;8.60;100.00
73981;BME280;62348;51.412;5.436;2023-12-29T02:13:43;100628.75;;;8.61;100.00
73981;BME280;62348;51.412;5.436;2023-12-29T02:16:44;100642.53;;;8.65;100.00
73981;BME280;62348;51.412;5.436;2023-12-29T02:19:30;100645.22;;;8.65;100.00
73981;BME280;62348;51.412;5.436;2023-12-29T02:22:02;100649.56;;;8.66;100.00
73981;BME280;62348;51.412;5.436;2023-12-29T02:24:27;100648.22;;;8.68;100.00
73981;BME280;62348;51.412;5.436;2023-12-29T02:26:58;100649.63;;;8.71;100.00
73981;BME280;62348;51.412;5.436;2023-12-29T02:29:30;100645.09;;;8.76;100.00
73981;BME280;62348;51.412;5.436;2023-12-29T02:31:59;100637.28;;;8.80;100.00
73981;BME280;62348;51.412;5.436;2023-12-29T02:34:26;100633.28;;;8.83;100.00
73981;BME280;62348;51.412;5.436;2023-12-29T02:36:54;100639.00;;;8.86;100.00
73981;BME280;62348;51.412;5.436;2023-12-29T02:39:20;100648.19;;;8.90;100.00
73981;BME280;62348;51.412;5.436;2023-12-29T02:41:45;100649.00;;;8.91;100.00
73981;BME280;62348;51.412;5.436;2023-12-29T02:44:11;100640.66;;;8.92;100.00
73981;BME280;62348;51.412;5.436;2023-12-29T02:46:37;100643.69;;;8.96;100.00
73981;BME280;62348;51.412;5.436;2023-12-29T02:49:02;100646.94;;;8.98;100.00
73981;BME280;62348;51.412;5.436;2023-12-29T02:51:27;100647.47;;;9.00;100.00
73981;BME280;62348;51.412;5.436;2023-12-29T02:53:53;100643.44;;;9.03;100.00
73981;BME280;62348;51.412;5.436;2023-12-29T02:56:18;100641.59;;;9.03;100.00
73981;BME280;62348;51.412;5.436;2023-12-29T02:58:44;100641.88;;;9.07;100.00
73981;BME280;62348;51.412;5.436;2023-12-29T03:01:11;100644.56;;;9.07;100.00
73981;BME280;62348;51.412;5.436;2023-12-29T03:03:36;100646.22;;;9.08;100.00
73981;BME280;62348;51.412;5.436;2023-12-29T03:06:05;100642.19;;;9.10;100.00
73981;BME280;62348;51.412;5.436;2023-12-29T03:08:30;100643.50;;;9.08;100.00
73981;BME280;62348;51.412;5.436;2023-12-29T03:10:56;100638.91;;;9.08;100.00
73981;BME280;62348;51.412;5.436;2023-12-29T03:13:22;100631.91;;;9.07;100.00
73981;BME280;62348;51.412;5.436;2023-12-29T03:15:47;100623.56;;;9.09;100.00
73981;BME280;62348;51.412;5.436;2023-12-29T03:18:13;100626.28;;;9.09;100.00
73981;BME280;62348;51.412;5.436;2023-12-29T03:20:39;100628.13;;;9.08;100.00
73981;BME280;62348;51.412;5.436;2023-12-29T03:23:04;100621.94;;;9.08;100.00
73981;BME280;62348;51.412;5.436;2023-12-29T03:25:29;100624.38;;;9.09;100.00
73981;BME280;62348;51.412;5.436;2023-12-29T03:27:55;100629.53;;;9.11;100.00
73981;BME280;62348;51.412;5.436;2023-12-29T03:30:20;100631.94;;;9.12;100.00
73981;BME280;62348;51.412;5.436;2023-12-29T03:32:45;100632.78;;;9.13;100.00
73981;BME280;62348;51.412;5.436;2023-12-29T03:35:11;100634.38;;;9.14;100.00
73981;BME280;62348;51.412;5.436;2023-12-29T03:37:37;100630.88;;;9.13;100.00
73981;BME280;62348;51.412;5.436;2023-12-29T03:40:03;100634.13;;;9.15;100.00
73981;BME280;62348;51.412;5.436;2023-12-29T03:42:28;100647.38;;;9.17;100.00
73981;BME280;62348;51.412;5.436;2023-12-29T03:44:54;100640.09;;;9.17;100.00
73981;BME280;62348;51.412;5.436;2023-12-29T03:47:19;100638.50;;;9.22;100.00
73981;BME280;62348;51.412;5.436;2023-12-29T03:49:45;100648.72;;;9.19;100.00
73981;BME280;62348;51.412;5.436;2023-12-29T03:52:10;100631.25;;;9.22;100.00
73981;BME280;62348;51.412;5.436;2023-12-29T03:54:35;100642.03;;;9.22;100.00
73981;BME280;62348;51.412;5.436;2023-12-29T03:57:01;100635.56;;;9.23;100.00
73981;BME280;62348;51.412;5.436;2023-12-29T03:59:26;100627.22;;;9.25;100.00
73981;BME280;62348;51.412;5.436;2023-12-29T04:01:52;100632.34;;;9.26;100.00
73981;BME280;62348;51.412;5.436;2023-12-29T04:04:17;100627.75;;;9.27;100.00
73981;BME280;62348;51.412;5.436;2023-12-29T04:06:42;100623.16;;;9.27;100.00
73981;BME280;62348;51.412;5.436;2023-12-29T04:09:08;100631.00;;;9.29;100.00
73981;BME280;62348;51.412;5.436;2023-12-29T04:11:33;100637.22;;;9.29;100.00
73981;BME280;62348;51.412;5.436;2023-12-29T04:13:58;100633.97;;;9.27;100.00
73981;BME280;62348;51.412;5.436;2023-12-29T04:16:24;100635.06;;;9.26;100.00
73981;BME280;62348;51.412;5.436;2023-12-29T04:18:49;100619.66;;;9.27;100.00
73981;BME280;62348;51.412;5.436;2023-12-29T04:21:15;100635.06;;;9.26;100.00
73981;BME280;62348;51.412;5.436;2023-12-29T04:23:41;100641.00;;;9.28;100.00
73981;BME280;62348;51.412;5.436;2023-12-29T04:26:09;100655.53;;;9.27;100.00
73981;BME280;62348;51.412;5.436;2023-12-29T04:28:34;100642.06;;;9.27;100.00
73981;BME280;62348;51.412;5.436;2023-12-29T04:31:00;100630.47;;;9.27;100.00
73981;BME280;62348;51.412;5.436;2023-12-29T04:33:25;100636.41;;;9.29;100.00
73981;BME280;62348;51.412;5.436;2023-12-29T04:35:51;100636.16;;;9.30;100.00
73981;BME280;62348;51.412;5.436;2023-12-29T04:38:16;100630.22;;;9.28;100.00
73981;BME280;62348;51.412;5.436;2023-12-29T04:40:45;100629.13;;;9.29;100.00
73981;BME280;62348;51.412;5.436;2023-12-29T04:43:12;100637.22;;;9.29;100.00
73981;BME280;62348;51.412;5.436;2023-12-29T04:45:37;100633.97;;;9.27;100.00
73981;BME280;62348;51.412;5.436;2023-12-29T04:48:03;100635.59;;;9.28;100.00
73981;BME280;62348;51.412;5.436;2023-12-29T04:50:28;100632.34;;;9.26;100.00
73981;BME280;62348;51.412;5.436;2023-12-29T04:52:54;100628.56;;;9.27;100.00
73981;BME280;62348;51.412;5.436;2023-12-29T04:55:19;100622.38;;;9.27;100.00
73981;BME280;62348;51.412;5.436;2023-12-29T04:57:45;100626.41;;;9.24;100.00
73981;BME280;62348;51.412;5.436;2023-12-29T05:00:11;100633.66;;;9.24;100.00
73981;BME280;62348;51.412;5.436;2023-12-29T05:02:36;100620.44;;;9.22;100.00
73981;BME280;62348;51.412;5.436;2023-12-29T05:05:02;100622.31;;;9.22;100.00
73981;BME280;62348;51.412;5.436;2023-12-29T05:07:27;100634.75;;;9.23;100.00
73981;BME280;62348;51.412;5.436;2023-12-29T05:09:53;100625.00;;;9.22;100.00
73981;BME280;62348;51.412;5.436;2023-12-29T05:12:18;100628.53;;;9.22;100.00
73981;BME280;62348;51.412;5.436;2023-12-29T05:14:43;100615.31;;;9.21;100.00
73981;BME280;62348;51.412;5.436;2023-12-29T05:17:09;100626.91;;;9.21;100.00
73981;BME280;62348;51.412;5.436;2023-12-29T05:19:34;100624.22;;;9.21;100.00
73981;BME280;62348;51.412;5.436;2023-12-29T05:22:00;100630.69;;;9.20;100.00
73981;BME280;62348;51.412;5.436;2023-12-29T05:24:25;100632.56;;;9.19;100.00
73981;BME280;62348;51.412;5.436;2023-12-29T05:26:50;100637.13;;;9.19;100.00
73981;BME280;62348;51.412;5.436;2023-12-29T05:29:16;100638.78;;;9.20;100.00
73981;BME280;62348;51.412;5.436;2023-12-29T05:31:41;100630.94;;;9.18;100.00
73981;BME280;62348;51.412;5.436;2023-12-29T05:34:07;100631.50;;;9.21;100.00
73981;BME280;62348;51.412;5.436;2023-12-29T05:36:35;100634.69;;;9.17;100.00
73981;BME280;62348;51.412;5.436;2023-12-29T05:39:01;100620.41;;;9.17;100.00
73981;BME280;62348;51.412;5.436;2023-12-29T05:41:26;100616.06;;;9.16;100.00
73981;BME280;62348;51.412;5.436;2023-12-29T05:43:51;100626.84;;;9.16;100.00
73981;BME280;62348;51.412;5.436;2023-12-29T05:46:17;100620.91;;;9.14;100.00
73981;BME280;62348;51.412;5.436;2023-12-29T05:48:42;100623.03;;;9.12;100.00
73981;BME280;62348;51.412;5.436;2023-12-29T05:51:12;100623.59;;;9.14;100.00
73981;BME280;62348;51.412;5.436;2023-12-29T05:53:41;100614.16;;;9.11;100.00
73981;BME280;62348;51.412;5.436;2023-12-29T05:56:07;100609.56;;;9.12;100.00
73981;BME280;62348;51.412;5.436;2023-12-29T05:58:32;100618.75;;;9.11;100.00
73981;BME280;62348;51.412;5.436;2023-12-29T06:00:58;100615.19;;;9.10;100.00
73981;BME280;62348;51.412;5.436;2023-12-29T06:03:27;100619.78;;;9.10;100.00
73981;BME280;62348;51.412;5.436;2023-12-29T06:05:52;100599.03;;;9.10;100.00
73981;BME280;62348;51.412;5.436;2023-12-29T06:08:18;100606.31;;;9.10;100.00
73981;BME280;62348;51.412;5.436;2023-12-29T06:10:43;100592.81;;;9.10;100.00
73981;BME280;62348;51.412;5.436;2023-12-29T06:13:09;100595.00;;;9.13;100.00
73981;BME280;62348;51.412;5.436;2023-12-29T06:15:34;100604.41;;;9.10;100.00
73981;BME280;62348;51.412;5.436;2023-12-29T06:18:00;100600.34;;;9.08;100.00
73981;BME280;62348;51.412;5.436;2023-12-29T06:20:25;100602.81;;;9.09;100.00
73981;BME280;62348;51.412;5.436;2023-12-29T06:22:51;100603.84;;;9.08;100.00
73981;BME280;62348;51.412;5.436;2023-12-29T06:25:17;100587.94;;;9.07;100.00
73981;BME280;62348;51.412;5.436;2023-12-29T06:27:42;100597.91;;;9.06;100.00
73981;BME280;62348;51.412;5.436;2023-12-29T06:30:08;100596.31;;;9.05;100.00
73981;BME280;62348;51.412;5.436;2023-12-29T06:32:34;100607.09;;;9.05;100.00
73981;BME280;62348;51.412;5.436;2023-12-29T06:35:00;100607.34;;;9.04;100.00
73981;BME280;62348;51.412;5.436;2023-12-29T06:37:25;100612.97;;;9.02;100.00
73981;BME280;62348;51.412;5.436;2023-12-29T06:39:51;100612.19;;;9.02;100.00
73981;BME280;62348;51.412;5.436;2023-12-29T06:42:16;100622.16;;;9.01;100.00
73981;BME280;62348;51.412;5.436;2023-12-29T06:44:42;100619.72;;;8.99;100.00
73981;BME280;62348;51.412;5.436;2023-12-29T06:47:07;100624.56;;;8.97;100.00
73981;BME280;62348;51.412;5.436;2023-12-29T06:49:35;100620.22;;;8.96;100.00
73981;BME280;62348;51.412;5.436;2023-12-29T06:52:01;100620.47;;;8.95;100.00
73981;BME280;62348;51.412;5.436;2023-12-29T06:54:27;100608.63;;;8.96;100.00
73981;BME280;62348;51.412;5.436;2023-12-29T06:56:52;100600.53;;;8.96;100.00
73981;BME280;62348;51.412;5.436;2023-12-29T06:59:18;100610.50;;;8.95;100.00
73981;BME280;62348;51.412;5.436;2023-12-29T07:01:47;100613.22;;;8.95;100.00
73981;BME280;62348;51.412;5.436;2023-12-29T07:04:13;100594.31;;;8.95;100.00
73981;BME280;62348;51.412;5.436;2023-12-29T07:06:39;100588.66;;;8.97;100.00
73981;BME280;62348;51.412;5.436;2023-12-29T07:09:04;100580.00;;;8.95;100.00
73981;BME280;62348;51.412;5.436;2023-12-29T07:11:30;100595.63;;;8.93;100.00
73981;BME280;62348;51.412;5.436;2023-12-29T07:13:55;100600.53;;;8.96;100.00
73981;BME280;62348;51.412;5.436;2023-12-29T07:16:21;100595.13;;;8.96;100.00
73981;BME280;62348;51.412;5.436;2023-12-29T07:18:47;100590.78;;;8.95;100.00
73981;BME280;62348;51.412;5.436;2023-12-29T07:21:13;100576.25;;;8.96;100.00
73981;BME280;62348;51.412;5.436;2023-12-29T07:23:38;100598.63;;;8.96;100.00
73981;BME280;62348;51.412;5.436;2023-12-29T07:26:04;100611.06;;;8.97;100.00
73981;BME280;62348;51.412;5.436;2023-12-29T07:28:31;100610.78;;;8.99;100.00
73981;BME280;62348;51.412;5.436;2023-12-29T07:30:57;100618.63;;;9.01;100.00
73981;BME280;62348;51.412;5.436;2023-12-29T07:33:22;100622.97;;;9.02;100.00
73981;BME280;62348;51.412;5.436;2023-12-29T07:35:49;100611.38;;;9.01;100.00
73981;BME280;62348;51.412;5.436;2023-12-29T07:38:14;100591.66;;;9.01;100.00
73981;BME280;62348;51.412;5.436;2023-12-29T07:40:40;100589.78;;;9.01;100.00
73981;BME280;62348;51.412;5.436;2023-12-29T07:43:05;100556.03;;;8.98;100.00
73981;BME280;62348;51.412;5.436;2023-12-29T07:45:31;100552.53;;;8.98;100.00
73981;BME280;62348;51.412;5.436;2023-12-29T07:47:56;100569.78;;;8.97;100.00
73981;BME280;62348;51.412;5.436;2023-12-29T07:50:22;100580.00;;;8.95;100.00
73981;BME280;62348;51.412;5.436;2023-12-29T07:52:48;100568.66;;;8.93;100.00
73981;BME280;62348;51.412;5.436;2023-12-29T07:55:13;100566.22;;;8.91;100.00
73981;BME280;62348;51.412;5.436;2023-12-29T07:57:41;100570.81;;;8.91;100.00
73981;BME280;62348;51.412;5.436;2023-12-29T08:00:07;100577.53;;;8.88;100.00
73981;BME280;62348;51.412;5.436;2023-12-29T08:02:33;100588.06;;;8.90;100.00
73981;BME280;62348;51.412;5.436;2023-12-29T08:04:58;100589.94;;;8.89;100.00
73981;BME280;62348;51.412;5.436;2023-12-29T08:07:23;100588.88;;;8.90;100.00
73981;BME280;62348;51.412;5.436;2023-12-29T08:09:49;100602.38;;;8.90;100.00
73981;BME280;62348;51.412;5.436;2023-12-29T08:12:14;100613.72;;;8.92;100.00
73981;BME280;62348;51.412;5.436;2023-12-29T08:14:40;100606.66;;;8.91;100.00
73981;BME280;62348;51.412;5.436;2023-12-29T08:17:05;100609.13;;;8.93;100.00
73981;BME280;62348;51.412;5.436;2023-12-29T08:19:32;100599.13;;;8.93;100.00
73981;BME280;62348;51.412;5.436;2023-12-29T08:21:57;100605.94;;;8.96;100.00
73981;BME280;62348;51.412;5.436;2023-12-29T08:24:23;100610.22;;;8.97;100.00
73981;BME280;62348;51.412;5.436;2023-12-29T08:26:48;100617.50;;;8.96;100.00
73981;BME280;62348;51.412;5.436;2023-12-29T08:29:14;100598.63;;;8.96;100.00
73981;BME280;62348;51.412;5.436;2023-12-29T08:31:41;100603.22;;;8.96;100.00
73981;BME280;62348;51.412;5.436;2023-12-29T08:34:06;100605.69;;;8.97;100.00
73981;BME280;62348;51.412;5.436;2023-12-29T08:36:32;100605.94;;;8.96;100.00
73981;BME280;62348;51.412;5.436;2023-12-29T08:38:57;100614.00;;;8.96;100.00
73981;BME280;62348;51.412;5.436;2023-12-29T08:41:23;100620.47;;;8.95;100.00
73981;BME280;62348;51.412;5.436;2023-12-29T08:43:49;100619.91;;;8.93;100.00
73981;BME280;62348;51.412;5.436;2023-12-29T08:46:14;100626.69;;;8.95;100.00
73981;BME280;62348;51.412;5.436;2023-12-29T08:48:40;100629.38;;;8.95;100.00
73981;BME280;62348;51.412;5.436;2023-12-29T08:51:05;100632.88;;;8.96;100.00
73981;BME280;62348;51.412;5.436;2023-12-29T08:53:32;100618.84;;;8.94;100.00
73981;BME280;62348;51.412;5.436;2023-12-29T08:56:03;100628.56;;;8.95;100.00
73981;BME280;62348;51.412;5.436;2023-12-29T08:58:29;100634.78;;;8.95;100.00
73981;BME280;62348;51.412;5.436;2023-12-29T09:00:55;100645.25;;;8.92;100.00
73981;BME280;62348;51.412;5.436;2023-12-29T09:03:20;100639.31;;;8.90;100.00
73981;BME280;62348;51.412;5.436;2023-12-29T09:05:45;100624.19;;;8.89;100.00
73981;BME280;62348;51.412;5.436;2023-12-29T09:08:11;100620.94;;;8.87;100.00
73981;BME280;62348;51.412;5.436;2023-12-29T09:10:36;100618.22;;;8.87;100.00
73981;BME280;62348;51.412;5.436;2023-12-29T09:13:02;100618.72;;;8.84;100.00
73981;BME280;62348;51.412;5.436;2023-12-29T09:15:27;100627.09;;;8.82;100.00
73981;BME280;62348;51.412;5.436;2023-12-29T09:17:52;100628.72;;;8.83;100.00
73981;BME280;62348;51.412;5.436;2023-12-29T09:20:18;100632.50;;;8.82;100.00
73981;BME280;62348;51.412;5.436;2023-12-29T09:22:43;100626.25;;;8.82;100.00
73981;BME280;62348;51.412;5.436;2023-12-29T09:25:09;100638.94;;;8.81;100.00
73981;BME280;62348;51.412;5.436;2023-12-29T09:27:34;100633.53;;;8.81;100.00
73981;BME280;62348;51.412;5.436;2023-12-29T09:29:59;100645.13;;;8.82;100.00
73981;BME280;62348;51.412;5.436;2023-12-29T09:32:25;100644.88;;;8.83;100.00
73981;BME280;62348;51.412;5.436;2023-12-29T09:34:50;100642.19;;;8.83;100.00
73981;BME280;62348;51.412;5.436;2023-12-29T09:37:17;100647.34;;;8.85;100.00
73981;BME280;62348;51.412;5.436;2023-12-29T09:39:43;100633.59;;;8.86;100.00
73981;BME280;62348;51.412;5.436;2023-12-29T09:42:13;100638.72;;;8.88;100.00
73981;BME280;62348;51.412;5.436;2023-12-29T09:44:42;100646.56;;;8.89;100.00
73981;BME280;62348;51.412;5.436;2023-12-29T09:47:11;100641.72;;;8.91;100.00
73981;BME280;62348;51.412;5.436;2023-12-29T09:49:38;100659.28;;;8.94;100.00
73981;BME280;62348;51.412;5.436;2023-12-29T09:52:07;100665.00;;;8.97;100.00
73981;BME280;62348;51.412;5.436;2023-12-29T09:54:35;100658.53;;;8.98;100.00
73981;BME280;62348;51.412;5.436;2023-12-29T09:57:04;100658.03;;;9.02;100.00
73981;BME280;62348;51.412;5.436;2023-12-29T09:59:33;100653.44;;;9.02;100.00
73981;BME280;62348;51.412;5.436;2023-12-29T10:02:03;100655.06;;;9.03;100.00
73981;BME280;62348;51.412;5.436;2023-12-29T10:04:29;100648.59;;;9.04;100.00
73981;BME280;62348;51.412;5.436;2023-12-29T10:06:55;100645.91;;;9.04;100.00
73981;BME280;62348;51.412;5.436;2023-12-29T10:09:23;100644.84;;;9.05;100.00
73981;BME280;62348;51.412;5.436;2023-12-29T10:11:50;100630.28;;;9.06;100.00
73981;BME280;62348;51.412;5.436;2023-12-29T10:14:24;100633.53;;;9.08;100.00
73981;BME280;62348;51.412;5.436;2023-12-29T10:16:55;100628.13;;;9.08;100.00
73981;BME280;62348;51.412;5.436;2023-12-29T10:19:51;100644.38;;;9.13;100.00
73981;BME280;62348;51.412;5.436;2023-12-29T10:25:23;100670.00;;;9.16;100.00
73981;BME280;62348;51.412;5.436;2023-12-29T10:27:49;100661.91;;;9.16;100.00
73981;BME280;62348;51.412;5.436;2023-12-29T10:30:15;100660.06;;;9.16;100.00
73981;BME280;62348;51.412;5.436;2023-12-29T10:32:41;100663.06;;;9.20;100.00
73981;BME280;62348;51.412;5.436;2023-12-29T10:35:10;100655.53;;;9.22;100.00
73981;BME280;62348;51.412;5.436;2023-12-29T10:37:37;100670.38;;;9.25;100.00
73981;BME280;62348;51.412;5.436;2023-12-29T10:40:03;100666.59;;;9.26;100.00
73981;BME280;62348;51.412;5.436;2023-12-29T10:42:29;100672.56;;;9.28;100.00
73981;BME280;62348;51.412;5.436;2023-12-29T10:45:08;100675.53;;;9.31;100.00
73981;BME280;62348;51.412;5.436;2023-12-29T10:47:34;100679.63;;;9.34;100.00
73981;BME280;62348;51.412;5.436;2023-12-29T10:50:04;100691.78;;;9.36;100.00
73981;BME280;62348;51.412;5.436;2023-12-29T10:52:31;100689.41;;;9.40;100.00
73981;BME280;62348;51.412;5.436;2023-12-29T10:55:07;100698.59;;;9.44;100.00
73981;BME280;62348;51.412;5.436;2023-12-29T10:57:34;100692.94;;;9.46;100.00
73981;BME280;62348;51.412;5.436;2023-12-29T11:00:00;100697.84;;;9.49;100.00
73981;BME280;62348;51.412;5.436;2023-12-29T11:02:29;100689.47;;;9.50;100.00
73981;BME280;62348;51.412;5.436;2023-12-29T11:07:37;100681.41;;;9.55;100.00
73981;BME280;62348;51.412;5.436;2023-12-29T11:10:04;100680.38;;;9.56;100.00
73981;BME280;62348;51.412;5.436;2023-12-29T11:12:35;100682.81;;;9.58;100.00
73981;BME280;62348;51.412;5.436;2023-12-29T11:15:03;100672.00;;;9.58;100.00
73981;BME280;62348;51.412;5.436;2023-12-29T11:17:30;100686.81;;;9.55;100.00
73981;BME280;62348;51.412;5.436;2023-12-29T11:20:01;100691.41;;;9.55;100.00
73981;BME280;62348;51.412;5.436;2023-12-29T11:22:31;100688.16;;;9.53;100.00
73981;BME280;62348;51.412;5.436;2023-12-29T11:25:00;100691.91;;;9.47;100.00
73981;BME280;62348;51.412;5.436;2023-12-29T11:27:29;100689.44;;;9.45;100.00
73981;BME280;62348;51.412;5.436;2023-12-29T11:29:57;100679.97;;;9.43;100.00
73981;BME280;62348;51.412;5.436;2023-12-29T11:32:30;100682.94;;;9.41;100.00
73981;BME280;62348;51.412;5.436;2023-12-29T11:35:06;100677.00;;;9.39;100.00
73981;BME280;62348;51.412;5.436;2023-12-29T11:37:52;100678.84;;;9.38;100.00
73981;BME280;62348;51.412;5.436;2023-12-29T11:42:53;100665.34;;;9.33;100.00
73981;BME280;62348;51.412;5.436;2023-12-29T11:45:24;100653.97;;;9.31;100.00
73981;BME280;62348;51.412;5.436;2023-12-29T11:47:51;100669.34;;;9.31;100.00
73981;BME280;62348;51.412;5.436;2023-12-29T11:50:28;100648.28;;;9.28;100.00
73981;BME280;62348;51.412;5.436;2023-12-29T11:52:53;100655.00;;;9.25;100.00
73981;BME280;62348;51.412;5.436;2023-12-29T11:55:19;100659.84;;;9.23;100.00
73981;BME280;62348;51.412;5.436;2023-12-29T11:57:45;100648.47;;;9.21;100.00
73981;BME280;62348;51.412;5.436;2023-12-29T12:00:11;100646.03;;;9.19;100.00
73981;BME280;62348;51.412;5.436;2023-12-29T12:02:37;100632.56;;;9.19;100.00
73981;BME280;62348;51.412;5.436;2023-12-29T12:05:03;100642.53;;;9.19;100.00
73981;BME280;62348;51.412;5.436;2023-12-29T12:12:44;100629.59;;;9.21;100.00
73981;BME280;62348;51.412;5.436;2023-12-29T12:17:58;100620.16;;;9.24;100.00
73981;BME280;62348;51.412;5.436;2023-12-29T12:20:24;100640.44;;;9.26;100.00
73981;BME280;62348;51.412;5.436;2023-12-29T12:25:25;100633.97;;;9.27;100.00
73981;BME280;62348;51.412;5.436;2023-12-29T12:27:53;100634.53;;;9.29;100.00
73981;BME280;62348;51.412;5.436;2023-12-29T12:30:19;100628.88;;;9.31;100.00
73981;BME280;62348;51.412;5.436;2023-12-29T12:32:45;100622.66;;;9.30;100.00
73981;BME280;62348;51.412;5.436;2023-12-29T12:35:14;100611.88;;;9.30;100.00
73981;BME280;62348;51.412;5.436;2023-12-29T12:37:42;100615.69;;;9.34;100.00
73981;BME280;62348;51.412;5.436;2023-12-29T12:40:08;100608.09;;;9.31;100.00
73981;BME280;62348;51.412;5.436;2023-12-29T12:42:38;100605.13;;;9.33;100.00
73981;BME280;62348;51.412;5.436;2023-12-29T12:45:12;100612.44;;;9.32;100.00
73981;BME280;62348;51.412;5.436;2023-12-29T12:47:51;100606.78;;;9.34;100.00
73981;BME280;62348;51.412;5.436;2023-12-29T12:50:18;100603.28;;;9.33;100.00
73981;BME280;62348;51.412;5.436;2023-12-29T12:52:44;100597.88;;;9.33;100.00
73981;BME280;62348;51.412;5.436;2023-12-29T12:55:11;100585.19;;;9.34;100.00
73981;BME280;62348;51.412;5.436;2023-12-29T12:57:38;100581.41;;;9.35;100.00
73981;BME280;62348;51.412;5.436;2023-12-29T13:00:05;100568.75;;;9.35;100.00
73981;BME280;62348;51.412;5.436;2023-12-29T13:02:31;100584.66;;;9.37;100.00
73981;BME280;62348;51.412;5.436;2023-12-29T13:04:57;100580.91;;;9.38;100.00
73981;BME280;62348;51.412;5.436;2023-12-29T13:07:23;100597.66;;;9.40;100.00